My Meet Scores
Charlotte Dean, Aspire Gymnastics Academy - MyMeetScores.com
Top100 | Top Teams | Upcoming Meets | Completed Meets | Latest | Add Scores | Help| Support | Bookmark and Share

Charlotte Dean, Aspire Gymnastics Academy
Personal Bests
LevelVault BarsBeamFloorAA
39.5759.075 9.0008.92536.475
48.8259.350 9.5759.27535.700
59.3008.650 9.0508.75034.875
Meet Scores
Date Meet Team Session Level Division Vault Bars Beam Floor AA
2019-03-22 Illinois Gymnastics State Championships Aspire Gymnastics Academy 1 5 JR E 9.300 9 8.000 24 8.550 17T 8.675 24 34.525 21
2019-03-08 Lucky Invite Aspire Gymnastics Academy A07 5 Jr B 8.925 4 8.250 7T 8.725 7 8.750 6 34.650 7
2019-02-23 Kinetic Classic 2019 Aspire Gymnastics Academy 1 5 Middle 8.675 5 8.150 15T 8.800 6 8.150 18T 33.775 12
2019-02-15 Big ClassicBIG CLASSIC Aspire Gymnastics Academy 5B 5 Child C 8.650 7 8.375 9 9.050 6 8.425 10 34.500 7
2019-01-25 UGA Invitational Aspire Gymnastics Academy B11 5 Jr B 9.050 6T 8.175 10 8.675 9 7.900 15 33.800 10
2019-01-18 2019 Bravo Classic Aspire Gymnastics Academy 2A 5 Jr 8.600 16 6.900 29 8.950 17T 8.500 27 32.950 27
2018-12-14 2018 Aspire Classic Aspire Gymnastics Academy 8A 5 Middle 9.100 11 8.650 15T 8.600 15 8.525 19 34.875 17
2018-12-07 St. Nick Invite 2018 Aspire Gymnastics Academy 1 5 JrB 8.725 5 7.700 13 9.050 7 7.700 16 33.175 12
2018-11-17 Paul Hamm Thanksgiving Class WOMENS Aspire Gymnastics Academy 5 5 Younger 8.750 16 7.600 20 8.850 13T 8.575 22 33.775 19
2018-03-08 Level 4 & 5 State Aspire Gymnastics Academy All 4 Yh E 8.775 12T 8.750 15T 9.250 9T 8.925 13T 35.700 12
2018-02-16 Big Classic Aspire Gymnastics Academy 2B 4 Child B 8.300 11 8.725 9 8.475 13 9.000 10 34.500 12
2018-01-26 2018 UGA Classic Aspire Gymnastics Academy B2 4 Jr B 8.000 9 8.500 7T 9.500 2 9.275 5 35.275 5
2018-01-19 2018 Bravo Classic Aspire Gymnastics Academy 11B 4 Jr 8.525 7T 8.625 13 8.875 12 8.675 17T 34.700 12
2017-12-15 2017 Aspire Classic Aspire Gymnastics Academy 3 4 Sr A 8.825 8T 8.750 14 9.000 11 8.650 14 35.225 10
2017-12-08 St. Nick Invite Aspire Gymnastics Academy 7A 4 JrB 8.525 16 8.350 12T 9.575 3 8.600 15 35.050 12
2017-11-16 Paul Hamm Thanksgiving Classic - Women Aspire Gymnastics Academy 7 4 Middle 8.500 22T 9.350 14 9.075 16T 8.750 18 35.675 17
2017-02-24 Kinetic Classic Aspire Gymnastics Academy 5,6 4 All Ages 8.400 98 6.750 128 8.775 93T 8.325 106T 32.250 118
2017-02-18 2017 Great Western Invitational Women's Aspire Gymnastics Academy 5 4 Filly 8.100 14T 6.600 20 9.000 13 8.475 17 32.175 19
2017-01-27 2017 UGA Invitational Aspire Gymnastics Academy C12 4 Child 8.475 6 7.175 16 9.025 10 8.825 10T 33.500 12
2017-01-20 2017 Bravo Classic Aspire Gymnastics Academy 08B 4 6-8yrs 7.850 15 7.950 18 8.650 13 8.075 18 32.525 18
2016-12-16 2016 Aspire Classic Aspire Gymnastics Academy 5 4 Younger 8.375 7 7.000 10 8.600 8 8.225 10 32.200 10
2016-12-09 St. Nick Invite Aspire Gymnastics Academy 7 4 JrA 8.300 14 7.150 13T 8.950 12 8.300 15 32.700 13
2016-11-19 Paul Hamm Thanksgiving Classic - 2016 Girls Aspire Gymnastics Academy 7 4 9 yrs 8.525 9T 6.150 37 8.925 23 8.300 31 31.900 32
2016-03-04 2016 Illinois Level 3 State Championships Aspire Gymnastics Academy 3 Child-E 9.350 12 8.800 18 8.400 10 8.450 22 35.000 16
2016-02-13 Western Invite Aspire Gymnastics Academy 1 3 Pony 9.575 3 8.600 14T 8.450 14 8.750 18 35.375 13
2016-01-15 2016 Bravo Classic Aspire Gymnastics Academy 15A 3 6-7yrs 9.350 4 8.775 16T 8.700 11T 8.500 17 35.325 15
2015-12-18 2015 Aspire Classic Aspire Gymnastics Academy 9 3 Middle 9.475 2T 9.075 11 9.000 9T 8.925 7T 36.475 8
2015-12-11 St. Nick Invite Aspire Gymnastics Academy 6A 3 All 9.150 22T 8.350 21 8.650 29T 8.550 28T 34.700 28
2015-02-14 2015 Great Western Invitational Aspire Gymnastics Academy 7 3 Filly 8.700 22 7.600 22T 7.300 24 7.350 22 30.950 23
Get your scores on
a t-shirt, pin, or hoodie

www.lazysuits.com